createdAt,value
2018-04-02T00:03:42.156Z,6.10
2018-04-02T00:07:45.719Z,5.50
2018-04-02T00:11:48.489Z,5.50
2018-04-02T00:15:51.271Z,5.40
2018-04-02T00:19:54.750Z,5.00
2018-04-02T00:23:57.633Z,5.00
2018-04-02T00:28:00.341Z,5.00
2018-04-02T00:32:03.148Z,5.20
2018-04-02T00:36:05.859Z,5.10
2018-04-02T00:40:08.682Z,4.80
2018-04-02T00:44:11.823Z,4.40
2018-04-02T00:48:14.575Z,4.10
2018-04-02T00:52:18.108Z,3.50
2018-04-02T00:56:20.860Z,3.50
2018-04-02T01:00:23.598Z,3.30
2018-04-02T01:04:26.342Z,3.00
2018-04-02T01:08:29.057Z,2.80
2018-04-02T01:12:31.844Z,2.70
2018-04-02T01:16:34.650Z,2.60
2018-04-02T01:20:37.412Z,2.40
2018-04-02T01:24:40.135Z,2.30
2018-04-02T01:28:42.956Z,2.30
2018-04-02T01:32:45.838Z,2.50
2018-04-02T01:36:48.590Z,2.50
2018-04-02T01:40:51.390Z,2.40
2018-04-02T01:44:54.199Z,2.30
2018-04-02T01:48:56.903Z,2.20
2018-04-02T01:52:59.878Z,2.20
2018-04-02T01:57:02.582Z,1.90
2018-04-02T02:01:05.563Z,1.80
2018-04-02T02:05:08.276Z,1.60
2018-04-02T02:09:11.142Z,1.50
2018-04-02T02:13:14.841Z,1.30
2018-04-02T02:17:17.598Z,1.30
2018-04-02T02:21:20.324Z,1.30
2018-04-02T02:25:23.264Z,1.10
2018-04-02T02:29:25.982Z,1.10
2018-04-02T02:33:28.842Z,1.10
2018-04-02T02:37:32.815Z,0.90
2018-04-02T02:41:35.629Z,0.90
2018-04-02T02:45:38.406Z,0.90
2018-04-02T02:49:41.239Z,0.80
2018-04-02T02:53:44.154Z,0.70
2018-04-02T02:57:47.016Z,0.70
2018-04-02T03:01:50.567Z,0.60
2018-04-02T03:05:53.327Z,0.60
2018-04-02T03:09:56.264Z,0.60
2018-04-02T03:13:59.122Z,0.50
2018-04-02T03:18:03.035Z,0.80
2018-04-02T03:22:05.896Z,0.80
2018-04-02T03:26:08.679Z,0.90
2018-04-02T03:30:12.295Z,0.60
2018-04-02T03:34:15.079Z,0.50
2018-04-02T03:38:17.843Z,0.40
2018-04-02T03:42:20.658Z,0.40
2018-04-02T03:46:23.397Z,0.40
2018-04-02T03:50:26.921Z,0.30
2018-04-02T03:54:30.402Z,0.30
2018-04-02T03:58:33.112Z,0.30
2018-04-02T04:02:36.635Z,0.20
2018-04-02T04:06:40.339Z,0.10
2018-04-02T04:10:43.401Z,0.10
2018-04-02T04:14:46.224Z,0.00
2018-04-02T04:18:48.966Z,0.00
2018-04-02T04:22:55.184Z,0.00
2018-04-02T04:26:58.031Z,-0.10
2018-04-02T04:31:01.560Z,-0.20
2018-04-02T04:35:04.537Z,-0.20
2018-04-02T04:39:08.014Z,-0.10
2018-04-02T04:43:12.012Z,-0.10
2018-04-02T04:47:14.715Z,-0.10
2018-04-02T04:51:17.606Z,-0.10
2018-04-02T04:55:20.317Z,-0.20
2018-04-02T04:59:24.118Z,-0.30
2018-04-02T05:03:26.882Z,-0.30
2018-04-02T05:07:30.402Z,-0.30
2018-04-02T05:11:34.111Z,-0.10
2018-04-02T05:15:37.657Z,-0.10
2018-04-02T05:19:40.493Z,-0.10
2018-04-02T05:23:43.223Z,0.00
2018-04-02T05:27:46.798Z,0.10
2018-04-02T05:31:49.776Z,0.10
2018-04-02T05:35:52.484Z,0.20
2018-04-02T05:39:55.284Z,0.30
2018-04-02T05:43:58.146Z,0.40
2018-04-02T05:48:00.984Z,0.60
2018-04-02T05:52:04.613Z,1.10
2018-04-02T05:56:07.373Z,1.10
2018-04-02T06:00:10.212Z,1.30
2018-04-02T06:04:13.098Z,1.60
2018-04-02T06:08:15.821Z,1.90
2018-04-02T06:12:18.660Z,2.30
2018-04-02T06:16:21.382Z,2.60
2018-04-02T06:20:24.099Z,3.00
2018-04-02T06:24:26.875Z,3.30
2018-04-02T06:28:29.619Z,4.00
2018-04-02T06:32:33.096Z,4.90
2018-04-02T06:36:35.921Z,4.80
2018-04-02T06:40:40.500Z,5.30
2018-04-02T06:44:43.286Z,5.30
2018-04-02T06:48:46.217Z,5.60
2018-04-02T06:52:49.910Z,5.80
2018-04-02T06:56:53.950Z,5.90
2018-04-02T07:00:56.771Z,6.10
2018-04-02T07:05:00.452Z,6.40
2018-04-02T07:09:03.366Z,6.70
2018-04-02T07:13:07.318Z,7.00
2018-04-02T07:17:10.403Z,7.20
2018-04-02T07:21:13.218Z,7.70
2018-04-02T07:25:15.968Z,7.80
2018-04-02T07:29:18.830Z,8.00
2018-04-02T07:33:23.533Z,8.10
2018-04-02T07:37:26.253Z,8.10
2018-04-02T07:41:29.220Z,8.20
2018-04-02T07:45:32.107Z,8.30
2018-04-02T07:49:35.235Z,8.30
2018-04-02T07:53:37.944Z,8.70
2018-04-02T07:57:40.845Z,9.10
2018-04-02T08:01:43.570Z,9.50
2018-04-02T08:05:48.159Z,9.60
2018-04-02T08:09:50.894Z,9.60
2018-04-02T08:13:54.462Z,9.70
2018-04-02T08:17:58.392Z,9.70
2018-04-02T08:22:01.151Z,9.30
2018-04-02T08:26:04.685Z,9.30
2018-04-02T08:30:07.505Z,9.20
2018-04-02T08:34:10.269Z,9.30
2018-04-02T08:38:13.020Z,9.80
2018-04-02T08:42:15.751Z,9.90
2018-04-02T08:46:20.264Z,9.70
2018-04-02T08:50:23.785Z,10.50
2018-04-02T08:54:28.381Z,10.70
2018-04-02T08:58:31.226Z,10.70
2018-04-02T09:02:35.734Z,12.00
2018-04-02T09:06:38.460Z,11.90
2018-04-02T09:10:41.258Z,13.60
2018-04-02T09:14:44.729Z,15.50
2018-04-02T09:18:47.528Z,15.40
2018-04-02T09:22:50.267Z,15.20
2018-04-02T09:26:54.039Z,15.30
2018-04-02T09:30:56.808Z,15.30
2018-04-02T09:34:59.771Z,15.60
2018-04-02T09:39:02.481Z,15.70
2018-04-02T09:43:06.256Z,13.10
2018-04-02T09:47:09.181Z,13.10
2018-04-02T09:51:12.392Z,14.50
2018-04-02T09:55:15.116Z,14.70
2018-04-02T09:59:20.407Z,17.00
2018-04-02T10:03:23.487Z,16.90
2018-04-02T10:07:26.226Z,16.10
2018-04-02T10:11:29.124Z,16.00
2018-04-02T10:15:32.023Z,15.30
2018-04-02T10:19:35.913Z,14.90
2018-04-02T10:23:38.682Z,13.80
2018-04-02T10:27:42.397Z,14.50
2018-04-02T10:31:45.920Z,15.10
2018-04-02T10:35:49.546Z,15.70
2018-04-02T10:39:52.462Z,15.60
2018-04-02T10:43:55.354Z,16.50
2018-04-02T10:47:58.087Z,15.50
2018-04-02T10:52:01.022Z,16.30
2018-04-02T10:56:03.839Z,15.80
2018-04-02T11:00:06.850Z,17.00
2018-04-02T11:04:09.671Z,16.50
2018-04-02T11:08:12.430Z,16.80
2018-04-02T11:12:15.950Z,18.20
2018-04-02T11:16:18.888Z,18.20
2018-04-02T11:20:21.728Z,18.30
2018-04-02T11:24:25.610Z,17.30
2018-04-02T11:28:28.564Z,18.00
2018-04-02T11:32:32.184Z,20.20
2018-04-02T11:36:35.801Z,17.70
2018-04-02T11:40:39.578Z,17.20
2018-04-02T11:44:42.449Z,17.20
2018-04-02T11:48:47.593Z,18.60
2018-04-02T11:52:51.254Z,21.50
2018-04-02T11:56:54.069Z,21.40
2018-04-02T12:00:56.897Z,20.80
2018-04-02T12:05:14.612Z,21.10
2018-04-02T12:09:18.184Z,21.70
2018-04-02T12:13:21.854Z,23.40
2018-04-02T12:17:25.379Z,22.30
2018-04-02T12:21:31.526Z,22.30
2018-04-02T12:25:34.320Z,21.20
2018-04-02T12:29:38.930Z,20.90
2018-04-02T12:33:41.690Z,20.90
2018-04-02T12:37:44.551Z,23.20
2018-04-02T12:41:47.304Z,24.70
2018-04-02T12:45:51.097Z,25.80
2018-04-02T12:49:53.983Z,24.10
2018-04-02T12:53:56.781Z,23.50
2018-04-02T12:58:00.524Z,25.60
2018-04-02T13:02:03.244Z,25.50
2018-04-02T13:06:09.313Z,23.80
2018-04-02T13:10:12.073Z,24.70
2018-04-02T13:14:14.870Z,22.90
2018-04-02T13:18:17.819Z,24.20
2018-04-02T13:22:20.962Z,23.00
2018-04-02T13:26:24.808Z,25.80
2018-04-02T13:30:28.412Z,23.60
2018-04-02T13:34:31.290Z,23.60
2018-04-02T13:38:34.092Z,24.90
2018-04-02T13:42:36.852Z,24.60
2018-04-02T13:46:39.820Z,22.40
2018-04-02T13:50:42.623Z,23.80
2018-04-02T13:54:45.428Z,25.30
2018-04-02T13:58:48.163Z,23.50
2018-04-02T14:02:50.955Z,24.50
2018-04-02T14:06:53.687Z,25.10
2018-04-02T14:10:57.320Z,26.80
2018-04-02T14:15:00.120Z,26.70
2018-04-02T14:19:02.913Z,26.50
2018-04-02T14:23:05.664Z,25.80
2018-04-02T14:27:08.407Z,26.70
2018-04-02T14:31:11.297Z,23.00
2018-04-02T14:35:14.836Z,24.40
2018-04-02T14:39:17.789Z,24.40
2018-04-02T14:43:20.607Z,25.50
2018-04-02T14:47:25.302Z,25.90
2018-04-02T14:51:28.881Z,24.60
2018-04-02T14:55:33.498Z,22.80
2018-04-02T14:59:37.020Z,21.70
2018-04-02T15:03:40.612Z,19.60
2018-04-02T15:07:43.430Z,19.50
2018-04-02T15:11:46.938Z,20.40
2018-04-02T15:15:50.469Z,18.60
2018-04-02T15:19:54.107Z,17.30
2018-04-02T15:23:56.881Z,17.30
2018-04-02T15:28:00.436Z,16.50
2018-04-02T15:32:03.175Z,16.40
2018-04-02T15:36:06.753Z,16.30
2018-04-02T15:40:09.540Z,16.20
2018-04-02T15:44:12.304Z,16.20
2018-04-02T15:48:15.056Z,16.00
2018-04-02T15:52:17.975Z,15.60
2018-04-02T15:56:21.532Z,15.20
2018-04-02T16:00:24.311Z,15.20
2018-04-02T16:04:27.917Z,15.00
2018-04-02T16:08:31.399Z,14.80
2018-04-02T16:12:34.304Z,14.80
2018-04-02T16:16:37.019Z,14.50
2018-04-02T16:20:40.644Z,14.10
2018-04-02T16:24:44.233Z,13.90
2018-04-02T16:28:46.984Z,13.80
2018-04-02T16:32:49.808Z,14.00
2018-04-02T16:36:52.564Z,13.70
2018-04-02T16:40:55.295Z,13.40
2018-04-02T16:44:58.057Z,12.90
2018-04-02T16:49:00.838Z,12.50
2018-04-02T16:53:04.390Z,12.00
2018-04-02T16:57:08.176Z,12.00
2018-04-02T17:01:11.721Z,11.50
2018-04-02T17:05:14.451Z,11.40
2018-04-02T17:09:17.247Z,11.20
2018-04-02T17:13:20.060Z,11.00
2018-04-02T17:17:22.873Z,10.90
2018-04-02T17:21:26.396Z,10.30
2018-04-02T17:25:33.779Z,10.10
2018-04-02T17:29:36.546Z,10.10
2018-04-02T17:33:39.347Z,9.90
2018-04-02T17:37:42.153Z,9.80
2018-04-02T17:41:45.143Z,9.60
2018-04-02T17:45:48.634Z,9.30
2018-04-02T17:49:51.602Z,9.20
2018-04-02T17:53:55.083Z,8.90
2018-04-02T17:57:59.143Z,8.90
2018-04-02T18:02:02.645Z,8.60
2018-04-02T18:06:05.407Z,8.60
2018-04-02T18:10:08.125Z,8.50
2018-04-02T18:14:10.955Z,8.30
2018-04-02T18:18:14.435Z,8.10
2018-04-02T18:22:18.082Z,8.00
2018-04-02T18:26:21.569Z,7.90
2018-04-02T18:30:26.444Z,7.90
2018-04-02T18:34:32.199Z,7.70
2018-04-02T18:38:35.268Z,7.60
2018-04-02T18:42:37.977Z,7.50
2018-04-02T18:46:40.958Z,7.50
2018-04-02T18:50:43.952Z,7.50
2018-04-02T18:54:47.708Z,7.20
2018-04-02T18:58:50.491Z,7.20
2018-04-02T19:02:53.389Z,7.20
2018-04-02T19:06:56.271Z,7.10
2018-04-02T19:10:59.241Z,7.00
2018-04-02T19:15:03.272Z,6.90
2018-04-02T19:19:06.135Z,6.80
2018-04-02T19:23:09.038Z,6.70
2018-04-02T19:27:13.378Z,6.60
2018-04-02T19:31:16.992Z,6.50
2018-04-02T19:35:20.632Z,6.50
2018-04-02T19:39:23.360Z,6.50
2018-04-02T19:43:26.684Z,6.40
2018-04-02T19:47:29.415Z,6.40
2018-04-02T19:51:32.948Z,6.10
2018-04-02T19:55:36.092Z,6.10
2018-04-02T19:59:39.176Z,6.00
2018-04-02T20:03:42.179Z,5.90
2018-04-02T20:07:45.398Z,5.80
2018-04-02T20:11:49.263Z,5.70
2018-04-02T20:15:53.013Z,5.50
2018-04-02T20:19:56.039Z,5.50
2018-04-02T20:23:59.098Z,5.40
2018-04-02T20:28:02.193Z,5.40
2018-04-02T20:32:05.698Z,5.30
2018-04-02T20:36:09.247Z,5.20
2018-04-02T20:40:11.988Z,5.20
2018-04-02T20:44:15.951Z,5.20
2018-04-02T20:48:19.576Z,5.10
2018-04-02T20:52:22.412Z,5.10
2018-04-02T20:56:25.211Z,5.00
2018-04-02T21:00:28.056Z,5.00
2018-04-02T21:04:31.583Z,4.80
2018-04-02T21:08:35.152Z,4.60
2018-04-02T21:12:38.684Z,4.50
2018-04-02T21:16:41.457Z,4.50
2018-04-02T21:20:44.279Z,4.50
2018-04-02T21:24:47.066Z,4.40
2018-04-02T21:28:49.825Z,4.40
2018-04-02T21:32:53.460Z,4.10
2018-04-02T21:36:56.206Z,4.10
2018-04-02T21:40:59.738Z,4.10
2018-04-02T21:45:02.481Z,4.00
2018-04-02T21:49:05.345Z,4.00
2018-04-02T21:53:08.310Z,4.00
2018-04-02T21:57:11.818Z,3.80
2018-04-02T22:01:14.571Z,3.80
2018-04-02T22:05:17.277Z,3.70
2018-04-02T22:09:20.041Z,3.60
2018-04-02T22:13:22.807Z,3.60
2018-04-02T22:17:26.313Z,3.60
2018-04-02T22:21:29.877Z,3.50
2018-04-02T22:25:32.632Z,3.40
2018-04-02T22:29:36.211Z,3.50
2018-04-02T22:33:38.998Z,3.50
2018-04-02T22:37:41.778Z,3.60
2018-04-02T22:41:44.539Z,3.60
2018-04-02T22:45:47.346Z,3.70
2018-04-02T22:49:51.419Z,4.00
2018-04-02T22:53:54.362Z,4.00
2018-04-02T22:57:57.138Z,4.10
2018-04-02T23:01:59.966Z,4.20
2018-04-02T23:06:03.516Z,4.30
2018-04-02T23:10:06.338Z,4.20
2018-04-02T23:14:09.242Z,4.30
2018-04-02T23:18:11.974Z,4.40
2018-04-02T23:22:27.406Z,4.70
2018-04-02T23:26:30.112Z,4.60
2018-04-02T23:30:32.926Z,4.80
2018-04-02T23:34:35.647Z,5.20
2018-04-02T23:38:39.209Z,6.70
2018-04-02T23:42:41.946Z,6.70
2018-04-02T23:46:44.804Z,7.70
2018-04-02T23:50:47.507Z,8.00
2018-04-02T23:54:50.500Z,8.20
2018-04-02T23:58:53.268Z,8.40
